sensor_id;sensor_type;location;lat;lon;timestamp;P1;durP1;ratioP1;P2;durP2;ratioP2
21697;SDS011;11010;49.548;11.926;2022-12-18T00:01:02;32.90;;;11.63;;
21697;SDS011;11010;49.548;11.926;2022-12-18T00:03:33;41.17;;;12.83;;
21697;SDS011;11010;49.548;11.926;2022-12-18T00:06:03;40.20;;;13.00;;
21697;SDS011;11010;49.548;11.926;2022-12-18T00:08:30;38.63;;;12.23;;
21697;SDS011;11010;49.548;11.926;2022-12-18T00:11:05;38.13;;;11.30;;
21697;SDS011;11010;49.548;11.926;2022-12-18T00:13:33;38.07;;;12.10;;
21697;SDS011;11010;49.548;11.926;2022-12-18T00:16:02;34.50;;;11.00;;
21697;SDS011;11010;49.548;11.926;2022-12-18T00:18:30;39.60;;;12.60;;
21697;SDS011;11010;49.548;11.926;2022-12-18T00:20:58;39.87;;;12.50;;
21697;SDS011;11010;49.548;11.926;2022-12-18T00:23:27;39.63;;;12.17;;
21697;SDS011;11010;49.548;11.926;2022-12-18T00:25:58;34.80;;;11.73;;
21697;SDS011;11010;49.548;11.926;2022-12-18T00:28:26;35.33;;;11.93;;
21697;SDS011;11010;49.548;11.926;2022-12-18T00:31:02;39.50;;;12.47;;
21697;SDS011;11010;49.548;11.926;2022-12-18T00:33:30;35.83;;;12.00;;
21697;SDS011;11010;49.548;11.926;2022-12-18T00:36:17;38.23;;;11.80;;
21697;SDS011;11010;49.548;11.926;2022-12-18T00:38:45;39.27;;;11.73;;
21697;SDS011;11010;49.548;11.926;2022-12-18T00:41:16;31.27;;;10.73;;
21697;SDS011;11010;49.548;11.926;2022-12-18T00:44:04;31.83;;;10.30;;
21697;SDS011;11010;49.548;11.926;2022-12-18T00:46:32;31.27;;;10.53;;
21697;SDS011;11010;49.548;11.926;2022-12-18T00:49:00;30.80;;;10.40;;
21697;SDS011;11010;49.548;11.926;2022-12-18T00:51:28;33.77;;;11.07;;
21697;SDS011;11010;49.548;11.926;2022-12-18T00:53:55;31.00;;;10.27;;
21697;SDS011;11010;49.548;11.926;2022-12-18T00:56:23;34.47;;;11.30;;
21697;SDS011;11010;49.548;11.926;2022-12-18T00:58:51;34.20;;;11.73;;
21697;SDS011;11010;49.548;11.926;2022-12-18T01:01:19;28.87;;;10.00;;
21697;SDS011;11010;49.548;11.926;2022-12-18T01:03:47;30.13;;;10.50;;
21697;SDS011;11010;49.548;11.926;2022-12-18T01:06:15;29.37;;;9.93;;
21697;SDS011;11010;49.548;11.926;2022-12-18T01:08:43;30.60;;;10.43;;
21697;SDS011;11010;49.548;11.926;2022-12-18T01:11:12;30.83;;;10.47;;
21697;SDS011;11010;49.548;11.926;2022-12-18T01:13:40;27.20;;;10.37;;
21697;SDS011;11010;49.548;11.926;2022-12-18T01:16:10;29.37;;;10.27;;
21697;SDS011;11010;49.548;11.926;2022-12-18T01:18:38;33.33;;;9.73;;
21697;SDS011;11010;49.548;11.926;2022-12-18T01:21:06;31.47;;;10.30;;
21697;SDS011;11010;49.548;11.926;2022-12-18T01:23:35;32.23;;;10.90;;
21697;SDS011;11010;49.548;11.926;2022-12-18T01:26:05;33.37;;;11.03;;
21697;SDS011;11010;49.548;11.926;2022-12-18T01:28:34;28.33;;;9.87;;
21697;SDS011;11010;49.548;11.926;2022-12-18T01:31:11;34.73;;;10.63;;
21697;SDS011;11010;49.548;11.926;2022-12-18T01:33:39;32.07;;;10.20;;
21697;SDS011;11010;49.548;11.926;2022-12-18T01:36:07;28.93;;;11.00;;
21697;SDS011;11010;49.548;11.926;2022-12-18T01:38:35;29.27;;;10.00;;
21697;SDS011;11010;49.548;11.926;2022-12-18T01:41:02;29.93;;;10.87;;
21697;SDS011;11010;49.548;11.926;2022-12-18T01:43:43;30.57;;;10.07;;
21697;SDS011;11010;49.548;11.926;2022-12-18T01:46:11;30.83;;;9.97;;
21697;SDS011;11010;49.548;11.926;2022-12-18T01:48:39;31.80;;;9.73;;
21697;SDS011;11010;49.548;11.926;2022-12-18T01:51:08;27.77;;;9.93;;
21697;SDS011;11010;49.548;11.926;2022-12-18T01:53:37;28.50;;;9.90;;
21697;SDS011;11010;49.548;11.926;2022-12-18T01:56:05;32.87;;;10.87;;
21697;SDS011;11010;49.548;11.926;2022-12-18T02:01:03;28.07;;;9.97;;
21697;SDS011;11010;49.548;11.926;2022-12-18T02:03:31;28.20;;;9.83;;
21697;SDS011;11010;49.548;11.926;2022-12-18T02:06:00;29.07;;;9.70;;
21697;SDS011;11010;49.548;11.926;2022-12-18T02:16:01;29.43;;;10.33;;
21697;SDS011;11010;49.548;11.926;2022-12-18T02:18:32;28.57;;;10.00;;
21697;SDS011;11010;49.548;11.926;2022-12-18T02:23:53;29.90;;;10.73;;
21697;SDS011;11010;49.548;11.926;2022-12-18T02:28:53;26.77;;;9.93;;
21697;SDS011;11010;49.548;11.926;2022-12-18T02:31:23;28.77;;;9.87;;
21697;SDS011;11010;49.548;11.926;2022-12-18T02:33:52;26.37;;;9.67;;
21697;SDS011;11010;49.548;11.926;2022-12-18T02:36:21;27.50;;;9.83;;
21697;SDS011;11010;49.548;11.926;2022-12-18T02:38:49;28.77;;;9.93;;
21697;SDS011;11010;49.548;11.926;2022-12-18T02:41:17;27.73;;;9.47;;
21697;SDS011;11010;49.548;11.926;2022-12-18T02:43:46;26.30;;;9.77;;
21697;SDS011;11010;49.548;11.926;2022-12-18T02:46:29;26.43;;;9.07;;
21697;SDS011;11010;49.548;11.926;2022-12-18T02:49:06;30.07;;;10.50;;
21697;SDS011;11010;49.548;11.926;2022-12-18T02:51:40;29.43;;;9.87;;
21697;SDS011;11010;49.548;11.926;2022-12-18T02:54:14;30.77;;;9.90;;
21697;SDS011;11010;49.548;11.926;2022-12-18T02:56:47;29.10;;;10.47;;
21697;SDS011;11010;49.548;11.926;2022-12-18T02:59:19;29.87;;;9.90;;
21697;SDS011;11010;49.548;11.926;2022-12-18T03:04:42;29.83;;;9.67;;
21697;SDS011;11010;49.548;11.926;2022-12-18T03:07:17;28.80;;;9.47;;
21697;SDS011;11010;49.548;11.926;2022-12-18T03:09:47;31.80;;;9.73;;
21697;SDS011;11010;49.548;11.926;2022-12-18T03:12:24;27.40;;;8.97;;
21697;SDS011;11010;49.548;11.926;2022-12-18T03:15:03;25.57;;;8.97;;
21697;SDS011;11010;49.548;11.926;2022-12-18T03:17:32;25.17;;;8.83;;
21697;SDS011;11010;49.548;11.926;2022-12-18T03:20:05;29.20;;;9.90;;
21697;SDS011;11010;49.548;11.926;2022-12-18T03:22:34;29.70;;;10.73;;
21697;SDS011;11010;49.548;11.926;2022-12-18T03:25:04;31.93;;;9.10;;
21697;SDS011;11010;49.548;11.926;2022-12-18T03:27:35;29.77;;;9.37;;
21697;SDS011;11010;49.548;11.926;2022-12-18T03:30:08;31.37;;;9.87;;
21697;SDS011;11010;49.548;11.926;2022-12-18T03:32:47;29.37;;;9.90;;
21697;SDS011;11010;49.548;11.926;2022-12-18T03:35:24;28.90;;;9.80;;
21697;SDS011;11010;49.548;11.926;2022-12-18T03:37:53;29.50;;;9.20;;
21697;SDS011;11010;49.548;11.926;2022-12-18T03:40:22;28.27;;;9.57;;
21697;SDS011;11010;49.548;11.926;2022-12-18T03:43:02;28.00;;;9.53;;
21697;SDS011;11010;49.548;11.926;2022-12-18T03:45:36;28.60;;;9.37;;
21697;SDS011;11010;49.548;11.926;2022-12-18T03:48:11;29.43;;;10.33;;
21697;SDS011;11010;49.548;11.926;2022-12-18T03:50:46;31.57;;;9.53;;
21697;SDS011;11010;49.548;11.926;2022-12-18T03:53:21;31.30;;;9.93;;
21697;SDS011;11010;49.548;11.926;2022-12-18T03:55:51;28.43;;;10.53;;
21697;SDS011;11010;49.548;11.926;2022-12-18T03:58:20;31.87;;;10.30;;
21697;SDS011;11010;49.548;11.926;2022-12-18T04:00:56;30.03;;;9.53;;
21697;SDS011;11010;49.548;11.926;2022-12-18T04:03:24;28.30;;;9.50;;
21697;SDS011;11010;49.548;11.926;2022-12-18T04:05:52;28.87;;;9.43;;
21697;SDS011;11010;49.548;11.926;2022-12-18T04:08:22;30.67;;;10.17;;
21697;SDS011;11010;49.548;11.926;2022-12-18T04:10:59;29.97;;;9.90;;
21697;SDS011;11010;49.548;11.926;2022-12-18T04:24:07;29.63;;;9.20;;
21697;SDS011;11010;49.548;11.926;2022-12-18T04:26:39;29.27;;;8.80;;
21697;SDS011;11010;49.548;11.926;2022-12-18T04:29:20;26.23;;;9.87;;
21697;SDS011;11010;49.548;11.926;2022-12-18T04:31:48;25.50;;;8.47;;
21697;SDS011;11010;49.548;11.926;2022-12-18T04:34:15;21.77;;;7.83;;
21697;SDS011;11010;49.548;11.926;2022-12-18T04:36:48;26.13;;;8.77;;
21697;SDS011;11010;49.548;11.926;2022-12-18T04:39:16;26.97;;;8.47;;
21697;SDS011;11010;49.548;11.926;2022-12-18T04:41:44;25.43;;;7.93;;
21697;SDS011;11010;49.548;11.926;2022-12-18T04:44:12;25.70;;;8.67;;
21697;SDS011;11010;49.548;11.926;2022-12-18T04:46:40;28.70;;;8.07;;
21697;SDS011;11010;49.548;11.926;2022-12-18T04:49:07;26.57;;;8.53;;
21697;SDS011;11010;49.548;11.926;2022-12-18T04:51:36;25.10;;;8.30;;
21697;SDS011;11010;49.548;11.926;2022-12-18T04:54:04;24.87;;;7.70;;
21697;SDS011;11010;49.548;11.926;2022-12-18T04:56:31;26.53;;;8.40;;
21697;SDS011;11010;49.548;11.926;2022-12-18T04:58:59;26.40;;;8.30;;
21697;SDS011;11010;49.548;11.926;2022-12-18T05:01:26;24.90;;;8.30;;
21697;SDS011;11010;49.548;11.926;2022-12-18T05:04:00;26.67;;;8.37;;
21697;SDS011;11010;49.548;11.926;2022-12-18T05:06:28;29.23;;;8.40;;
21697;SDS011;11010;49.548;11.926;2022-12-18T05:08:55;23.53;;;7.90;;
21697;SDS011;11010;49.548;11.926;2022-12-18T05:11:23;23.73;;;8.13;;
21697;SDS011;11010;49.548;11.926;2022-12-18T05:13:50;26.33;;;8.43;;
21697;SDS011;11010;49.548;11.926;2022-12-18T05:16:17;25.40;;;8.00;;
21697;SDS011;11010;49.548;11.926;2022-12-18T05:18:45;26.33;;;7.87;;
21697;SDS011;11010;49.548;11.926;2022-12-18T05:21:12;25.00;;;8.53;;
21697;SDS011;11010;49.548;11.926;2022-12-18T05:23:40;24.60;;;7.47;;
21697;SDS011;11010;49.548;11.926;2022-12-18T05:26:08;25.33;;;8.23;;
21697;SDS011;11010;49.548;11.926;2022-12-18T05:28:35;25.77;;;7.97;;
21697;SDS011;11010;49.548;11.926;2022-12-18T05:31:03;27.03;;;8.23;;
21697;SDS011;11010;49.548;11.926;2022-12-18T05:33:32;22.57;;;7.83;;
21697;SDS011;11010;49.548;11.926;2022-12-18T05:36:02;24.23;;;7.80;;
21697;SDS011;11010;49.548;11.926;2022-12-18T05:38:30;26.77;;;9.03;;
21697;SDS011;11010;49.548;11.926;2022-12-18T05:40:57;25.73;;;8.30;;
21697;SDS011;11010;49.548;11.926;2022-12-18T05:43:25;27.27;;;8.93;;
21697;SDS011;11010;49.548;11.926;2022-12-18T05:45:53;26.03;;;7.80;;
21697;SDS011;11010;49.548;11.926;2022-12-18T05:48:20;27.10;;;8.50;;
21697;SDS011;11010;49.548;11.926;2022-12-18T05:50:51;30.50;;;8.70;;
21697;SDS011;11010;49.548;11.926;2022-12-18T05:53:19;26.37;;;8.30;;
21697;SDS011;11010;49.548;11.926;2022-12-18T05:55:46;26.90;;;8.47;;
21697;SDS011;11010;49.548;11.926;2022-12-18T05:58:14;28.00;;;9.20;;
21697;SDS011;11010;49.548;11.926;2022-12-18T06:00:43;28.30;;;9.13;;
21697;SDS011;11010;49.548;11.926;2022-12-18T06:03:11;30.43;;;8.40;;
21697;SDS011;11010;49.548;11.926;2022-12-18T06:05:39;26.87;;;8.53;;
21697;SDS011;11010;49.548;11.926;2022-12-18T06:08:07;29.30;;;8.47;;
21697;SDS011;11010;49.548;11.926;2022-12-18T06:10:35;32.87;;;9.93;;
21697;SDS011;11010;49.548;11.926;2022-12-18T06:13:02;28.63;;;8.87;;
21697;SDS011;11010;49.548;11.926;2022-12-18T06:15:30;31.33;;;9.30;;
21697;SDS011;11010;49.548;11.926;2022-12-18T06:17:57;26.57;;;8.80;;
21697;SDS011;11010;49.548;11.926;2022-12-18T06:20:24;26.47;;;8.97;;
21697;SDS011;11010;49.548;11.926;2022-12-18T06:22:58;38.17;;;9.83;;
21697;SDS011;11010;49.548;11.926;2022-12-18T06:25:26;29.60;;;8.90;;
21697;SDS011;11010;49.548;11.926;2022-12-18T06:27:53;31.63;;;9.10;;
21697;SDS011;11010;49.548;11.926;2022-12-18T06:30:21;31.80;;;9.37;;
21697;SDS011;11010;49.548;11.926;2022-12-18T06:32:48;30.20;;;8.73;;
21697;SDS011;11010;49.548;11.926;2022-12-18T06:35:22;32.43;;;10.23;;
21697;SDS011;11010;49.548;11.926;2022-12-18T06:37:49;31.67;;;9.60;;
21697;SDS011;11010;49.548;11.926;2022-12-18T06:40:17;30.10;;;9.97;;
21697;SDS011;11010;49.548;11.926;2022-12-18T06:42:45;34.27;;;10.57;;
21697;SDS011;11010;49.548;11.926;2022-12-18T06:45:12;33.03;;;11.03;;
21697;SDS011;11010;49.548;11.926;2022-12-18T06:47:42;32.63;;;9.77;;
21697;SDS011;11010;49.548;11.926;2022-12-18T06:50:10;36.33;;;10.83;;
21697;SDS011;11010;49.548;11.926;2022-12-18T06:52:40;32.97;;;9.47;;
21697;SDS011;11010;49.548;11.926;2022-12-18T06:55:10;39.20;;;11.37;;
21697;SDS011;11010;49.548;11.926;2022-12-18T06:57:38;38.97;;;11.90;;
21697;SDS011;11010;49.548;11.926;2022-12-18T07:00:05;35.23;;;10.73;;
21697;SDS011;11010;49.548;11.926;2022-12-18T07:02:33;34.50;;;10.43;;
21697;SDS011;11010;49.548;11.926;2022-12-18T07:05:01;32.83;;;10.33;;
21697;SDS011;11010;49.548;11.926;2022-12-18T07:07:35;31.37;;;9.50;;
21697;SDS011;11010;49.548;11.926;2022-12-18T07:10:03;34.17;;;10.70;;
21697;SDS011;11010;49.548;11.926;2022-12-18T07:12:30;39.27;;;10.97;;
21697;SDS011;11010;49.548;11.926;2022-12-18T07:14:58;35.30;;;10.93;;
21697;SDS011;11010;49.548;11.926;2022-12-18T07:17:25;37.90;;;10.73;;
21697;SDS011;11010;49.548;11.926;2022-12-18T07:19:53;29.90;;;10.03;;
21697;SDS011;11010;49.548;11.926;2022-12-18T07:22:20;36.33;;;10.07;;
21697;SDS011;11010;49.548;11.926;2022-12-18T07:24:49;35.73;;;9.97;;
21697;SDS011;11010;49.548;11.926;2022-12-18T07:27:16;34.77;;;11.27;;
21697;SDS011;11010;49.548;11.926;2022-12-18T07:29:44;34.93;;;10.40;;
21697;SDS011;11010;49.548;11.926;2022-12-18T07:32:11;37.33;;;10.03;;
21697;SDS011;11010;49.548;11.926;2022-12-18T07:34:39;33.93;;;10.73;;
21697;SDS011;11010;49.548;11.926;2022-12-18T07:37:07;35.70;;;11.73;;
21697;SDS011;11010;49.548;11.926;2022-12-18T07:39:34;33.90;;;10.60;;
21697;SDS011;11010;49.548;11.926;2022-12-18T07:42:01;32.60;;;10.30;;
21697;SDS011;11010;49.548;11.926;2022-12-18T07:44:48;36.07;;;10.97;;
21697;SDS011;11010;49.548;11.926;2022-12-18T07:47:15;31.73;;;9.63;;
21697;SDS011;11010;49.548;11.926;2022-12-18T07:49:43;35.83;;;11.93;;
21697;SDS011;11010;49.548;11.926;2022-12-18T07:52:10;37.57;;;11.10;;
21697;SDS011;11010;49.548;11.926;2022-12-18T07:54:38;28.93;;;9.50;;
21697;SDS011;11010;49.548;11.926;2022-12-18T07:57:07;35.50;;;10.50;;
21697;SDS011;11010;49.548;11.926;2022-12-18T07:59:54;35.90;;;10.50;;
21697;SDS011;11010;49.548;11.926;2022-12-18T08:02:21;29.80;;;9.60;;
21697;SDS011;11010;49.548;11.926;2022-12-18T08:04:49;32.70;;;10.23;;
21697;SDS011;11010;49.548;11.926;2022-12-18T08:07:16;33.80;;;9.80;;
21697;SDS011;11010;49.548;11.926;2022-12-18T08:09:44;33.57;;;9.80;;
21697;SDS011;11010;49.548;11.926;2022-12-18T08:12:11;29.53;;;10.03;;
21697;SDS011;11010;49.548;11.926;2022-12-18T08:14:40;30.07;;;10.27;;
21697;SDS011;11010;49.548;11.926;2022-12-18T08:17:08;34.50;;;10.10;;
21697;SDS011;11010;49.548;11.926;2022-12-18T08:19:36;30.97;;;10.10;;
21697;SDS011;11010;49.548;11.926;2022-12-18T08:22:03;37.23;;;10.87;;
21697;SDS011;11010;49.548;11.926;2022-12-18T08:24:31;32.37;;;9.80;;
21697;SDS011;11010;49.548;11.926;2022-12-18T08:26:59;33.43;;;10.50;;
21697;SDS011;11010;49.548;11.926;2022-12-18T08:29:46;31.17;;;9.67;;
21697;SDS011;11010;49.548;11.926;2022-12-18T08:32:14;28.17;;;9.00;;
21697;SDS011;11010;49.548;11.926;2022-12-18T08:34:41;35.40;;;9.27;;
21697;SDS011;11010;49.548;11.926;2022-12-18T08:37:09;30.30;;;9.27;;
21697;SDS011;11010;49.548;11.926;2022-12-18T08:39:36;31.00;;;10.03;;
21697;SDS011;11010;49.548;11.926;2022-12-18T08:42:04;28.50;;;9.13;;
21697;SDS011;11010;49.548;11.926;2022-12-18T08:44:49;30.33;;;10.10;;
21697;SDS011;11010;49.548;11.926;2022-12-18T08:47:17;31.27;;;9.67;;
21697;SDS011;11010;49.548;11.926;2022-12-18T08:49:44;28.67;;;8.77;;
21697;SDS011;11010;49.548;11.926;2022-12-18T08:52:12;32.57;;;9.63;;
21697;SDS011;11010;49.548;11.926;2022-12-18T08:54:42;32.83;;;9.53;;
21697;SDS011;11010;49.548;11.926;2022-12-18T08:57:10;33.90;;;9.23;;
21697;SDS011;11010;49.548;11.926;2022-12-18T08:59:37;33.03;;;10.40;;
21697;SDS011;11010;49.548;11.926;2022-12-18T09:02:05;32.33;;;11.17;;
21697;SDS011;11010;49.548;11.926;2022-12-18T09:04:33;35.40;;;11.77;;
21697;SDS011;11010;49.548;11.926;2022-12-18T09:07:00;29.93;;;10.60;;
21697;SDS011;11010;49.548;11.926;2022-12-18T09:09:27;31.40;;;9.90;;
21697;SDS011;11010;49.548;11.926;2022-12-18T09:11:55;31.13;;;9.67;;
21697;SDS011;11010;49.548;11.926;2022-12-18T09:14:22;29.07;;;9.57;;
21697;SDS011;11010;49.548;11.926;2022-12-18T09:16:49;29.50;;;9.20;;
21697;SDS011;11010;49.548;11.926;2022-12-18T09:19:17;26.63;;;8.70;;
21697;SDS011;11010;49.548;11.926;2022-12-18T09:21:44;25.70;;;8.83;;
21697;SDS011;11010;49.548;11.926;2022-12-18T09:24:14;28.03;;;11.10;;
21697;SDS011;11010;49.548;11.926;2022-12-18T09:26:42;31.23;;;10.03;;
21697;SDS011;11010;49.548;11.926;2022-12-18T09:29:13;34.43;;;10.53;;
21697;SDS011;11010;49.548;11.926;2022-12-18T09:31:42;36.87;;;12.30;;
21697;SDS011;11010;49.548;11.926;2022-12-18T09:34:09;41.10;;;14.30;;
21697;SDS011;11010;49.548;11.926;2022-12-18T09:36:37;38.63;;;15.73;;
21697;SDS011;11010;49.548;11.926;2022-12-18T09:39:04;33.83;;;12.53;;
21697;SDS011;11010;49.548;11.926;2022-12-18T09:41:41;33.63;;;11.83;;
21697;SDS011;11010;49.548;11.926;2022-12-18T09:47:03;33.87;;;12.70;;
21697;SDS011;11010;49.548;11.926;2022-12-18T09:49:38;33.53;;;12.43;;
21697;SDS011;11010;49.548;11.926;2022-12-18T09:52:14;28.77;;;10.20;;
21697;SDS011;11010;49.548;11.926;2022-12-18T09:57:45;33.87;;;10.87;;
21697;SDS011;11010;49.548;11.926;2022-12-18T10:00:21;31.20;;;11.40;;
21697;SDS011;11010;49.548;11.926;2022-12-18T10:02:53;30.67;;;10.40;;
21697;SDS011;11010;49.548;11.926;2022-12-18T10:11:01;31.17;;;11.00;;
21697;SDS011;11010;49.548;11.926;2022-12-18T10:13:45;30.70;;;11.17;;
21697;SDS011;11010;49.548;11.926;2022-12-18T10:16:18;31.33;;;9.83;;
21697;SDS011;11010;49.548;11.926;2022-12-18T10:18:55;27.43;;;10.10;;
21697;SDS011;11010;49.548;11.926;2022-12-18T10:22:10;28.57;;;10.13;;
21697;SDS011;11010;49.548;11.926;2022-12-18T10:26:40;27.57;;;9.83;;
21697;SDS011;11010;49.548;11.926;2022-12-18T10:29:10;28.80;;;10.77;;
21697;SDS011;11010;49.548;11.926;2022-12-18T10:31:39;30.20;;;10.50;;
21697;SDS011;11010;49.548;11.926;2022-12-18T10:34:10;27.37;;;10.67;;
21697;SDS011;11010;49.548;11.926;2022-12-18T10:36:37;30.70;;;10.03;;
21697;SDS011;11010;49.548;11.926;2022-12-18T10:39:22;28.97;;;10.10;;
21697;SDS011;11010;49.548;11.926;2022-12-18T10:41:49;24.87;;;9.57;;
21697;SDS011;11010;49.548;11.926;2022-12-18T10:46:51;25.07;;;8.43;;
21697;SDS011;11010;49.548;11.926;2022-12-18T10:49:26;25.40;;;8.87;;
21697;SDS011;11010;49.548;11.926;2022-12-18T10:54:34;30.10;;;9.03;;
21697;SDS011;11010;49.548;11.926;2022-12-18T10:57:15;25.13;;;9.33;;
21697;SDS011;11010;49.548;11.926;2022-12-18T10:59:54;29.27;;;9.47;;
21697;SDS011;11010;49.548;11.926;2022-12-18T11:02:39;29.20;;;9.37;;
21697;SDS011;11010;49.548;11.926;2022-12-18T11:05:23;27.30;;;8.97;;
21697;SDS011;11010;49.548;11.926;2022-12-18T11:07:52;25.33;;;8.43;;
21697;SDS011;11010;49.548;11.926;2022-12-18T11:10:25;28.27;;;9.27;;
21697;SDS011;11010;49.548;11.926;2022-12-18T11:12:55;27.93;;;8.97;;
21697;SDS011;11010;49.548;11.926;2022-12-18T11:15:29;26.90;;;8.77;;
21697;SDS011;11010;49.548;11.926;2022-12-18T11:17:57;25.07;;;8.20;;
21697;SDS011;11010;49.548;11.926;2022-12-18T11:20:30;24.57;;;7.87;;
21697;SDS011;11010;49.548;11.926;2022-12-18T11:22:59;28.00;;;8.63;;
21697;SDS011;11010;49.548;11.926;2022-12-18T11:25:29;26.07;;;10.30;;
21697;SDS011;11010;49.548;11.926;2022-12-18T11:28:08;29.33;;;9.07;;
21697;SDS011;11010;49.548;11.926;2022-12-18T11:33:39;27.33;;;8.63;;
21697;SDS011;11010;49.548;11.926;2022-12-18T11:36:30;30.57;;;8.90;;
21697;SDS011;11010;49.548;11.926;2022-12-18T11:38:59;28.40;;;9.40;;
21697;SDS011;11010;49.548;11.926;2022-12-18T11:41:32;30.60;;;8.90;;
21697;SDS011;11010;49.548;11.926;2022-12-18T11:44:27;25.17;;;7.93;;
21697;SDS011;11010;49.548;11.926;2022-12-18T11:46:59;25.80;;;9.13;;
21697;SDS011;11010;49.548;11.926;2022-12-18T11:49:34;26.60;;;8.23;;
21697;SDS011;11010;49.548;11.926;2022-12-18T11:52:04;24.07;;;7.83;;
21697;SDS011;11010;49.548;11.926;2022-12-18T11:54:34;23.23;;;8.53;;
21697;SDS011;11010;49.548;11.926;2022-12-18T12:02:16;26.73;;;8.87;;
21697;SDS011;11010;49.548;11.926;2022-12-18T12:07:57;24.77;;;8.53;;
21697;SDS011;11010;49.548;11.926;2022-12-18T12:10:34;31.20;;;10.37;;
21697;SDS011;11010;49.548;11.926;2022-12-18T12:21:12;30.37;;;11.20;;
21697;SDS011;11010;49.548;11.926;2022-12-18T12:23:49;25.33;;;9.33;;
21697;SDS011;11010;49.548;11.926;2022-12-18T12:31:56;24.47;;;8.47;;
21697;SDS011;11010;49.548;11.926;2022-12-18T12:34:31;24.00;;;9.13;;
21697;SDS011;11010;49.548;11.926;2022-12-18T12:37:20;30.50;;;10.43;;
21697;SDS011;11010;49.548;11.926;2022-12-18T12:39:51;28.57;;;10.37;;
21697;SDS011;11010;49.548;11.926;2022-12-18T12:42:29;26.67;;;10.13;;
21697;SDS011;11010;49.548;11.926;2022-12-18T12:45:34;25.13;;;8.40;;
21697;SDS011;11010;49.548;11.926;2022-12-18T12:48:04;23.50;;;8.97;;
21697;SDS011;11010;49.548;11.926;2022-12-18T12:50:33;21.33;;;8.03;;
21697;SDS011;11010;49.548;11.926;2022-12-18T12:53:01;22.90;;;8.53;;
21697;SDS011;11010;49.548;11.926;2022-12-18T12:55:33;23.03;;;9.00;;
21697;SDS011;11010;49.548;11.926;2022-12-18T12:58:15;25.33;;;9.17;;
21697;SDS011;11010;49.548;11.926;2022-12-18T13:00:47;25.57;;;9.97;;
21697;SDS011;11010;49.548;11.926;2022-12-18T13:06:32;25.97;;;9.90;;
21697;SDS011;11010;49.548;11.926;2022-12-18T13:09:04;25.10;;;9.23;;
21697;SDS011;11010;49.548;11.926;2022-12-18T13:11:34;21.17;;;8.77;;
21697;SDS011;11010;49.548;11.926;2022-12-18T13:14:30;19.57;;;7.37;;
21697;SDS011;11010;49.548;11.926;2022-12-18T13:17:14;23.73;;;8.63;;
21697;SDS011;11010;49.548;11.926;2022-12-18T13:19:43;21.93;;;8.33;;
21697;SDS011;11010;49.548;11.926;2022-12-18T13:22:21;21.60;;;8.60;;
21697;SDS011;11010;49.548;11.926;2022-12-18T13:24:49;21.67;;;7.77;;
21697;SDS011;11010;49.548;11.926;2022-12-18T13:30:17;21.30;;;8.20;;
21697;SDS011;11010;49.548;11.926;2022-12-18T13:35:38;21.07;;;7.40;;
21697;SDS011;11010;49.548;11.926;2022-12-18T13:38:19;20.97;;;7.87;;
21697;SDS011;11010;49.548;11.926;2022-12-18T13:43:23;22.77;;;8.37;;
21697;SDS011;11010;49.548;11.926;2022-12-18T13:46:01;24.23;;;8.10;;
21697;SDS011;11010;49.548;11.926;2022-12-18T13:48:31;24.83;;;8.00;;
21697;SDS011;11010;49.548;11.926;2022-12-18T13:51:00;20.80;;;7.83;;
21697;SDS011;11010;49.548;11.926;2022-12-18T13:53:31;22.63;;;7.47;;
21697;SDS011;11010;49.548;11.926;2022-12-18T13:56:00;18.67;;;6.97;;
21697;SDS011;11010;49.548;11.926;2022-12-18T13:58:28;21.87;;;8.23;;
21697;SDS011;11010;49.548;11.926;2022-12-18T14:00:56;22.83;;;8.33;;
21697;SDS011;11010;49.548;11.926;2022-12-18T14:03:26;25.23;;;9.17;;
21697;SDS011;11010;49.548;11.926;2022-12-18T14:06:01;21.77;;;8.00;;
21697;SDS011;11010;49.548;11.926;2022-12-18T14:08:38;23.13;;;8.30;;
21697;SDS011;11010;49.548;11.926;2022-12-18T14:11:07;19.00;;;7.47;;
21697;SDS011;11010;49.548;11.926;2022-12-18T14:13:44;23.10;;;8.07;;
21697;SDS011;11010;49.548;11.926;2022-12-18T14:16:14;25.70;;;9.10;;
21697;SDS011;11010;49.548;11.926;2022-12-18T14:19:16;21.50;;;9.07;;
21697;SDS011;11010;49.548;11.926;2022-12-18T14:21:45;24.10;;;8.67;;
21697;SDS011;11010;49.548;11.926;2022-12-18T14:26:45;23.73;;;9.23;;
21697;SDS011;11010;49.548;11.926;2022-12-18T14:29:24;21.37;;;8.93;;
21697;SDS011;11010;49.548;11.926;2022-12-18T14:32:13;24.10;;;8.93;;
21697;SDS011;11010;49.548;11.926;2022-12-18T14:34:44;22.07;;;9.43;;
21697;SDS011;11010;49.548;11.926;2022-12-18T14:37:13;25.10;;;9.63;;
21697;SDS011;11010;49.548;11.926;2022-12-18T14:39:51;21.87;;;9.27;;
21697;SDS011;11010;49.548;11.926;2022-12-18T14:42:19;22.70;;;9.57;;
21697;SDS011;11010;49.548;11.926;2022-12-18T14:44:46;22.50;;;9.47;;
21697;SDS011;11010;49.548;11.926;2022-12-18T14:47:34;21.50;;;9.27;;
21697;SDS011;11010;49.548;11.926;2022-12-18T14:50:01;26.27;;;11.37;;
21697;SDS011;11010;49.548;11.926;2022-12-18T14:52:29;23.53;;;8.93;;
21697;SDS011;11010;49.548;11.926;2022-12-18T14:54:58;23.83;;;9.33;;
21697;SDS011;11010;49.548;11.926;2022-12-18T14:57:29;23.03;;;9.33;;
21697;SDS011;11010;49.548;11.926;2022-12-18T15:00:04;22.47;;;9.30;;
21697;SDS011;11010;49.548;11.926;2022-12-18T15:02:34;21.70;;;8.77;;
21697;SDS011;11010;49.548;11.926;2022-12-18T15:05:04;21.77;;;9.10;;
21697;SDS011;11010;49.548;11.926;2022-12-18T15:12:44;19.00;;;8.13;;
21697;SDS011;11010;49.548;11.926;2022-12-18T15:20:50;25.23;;;9.80;;
21697;SDS011;11010;49.548;11.926;2022-12-18T15:23:21;23.00;;;9.23;;
21697;SDS011;11010;49.548;11.926;2022-12-18T15:26:00;23.73;;;8.87;;
21697;SDS011;11010;49.548;11.926;2022-12-18T15:28:34;23.80;;;8.27;;
21697;SDS011;11010;49.548;11.926;2022-12-18T15:33:32;29.20;;;9.90;;
21697;SDS011;11010;49.548;11.926;2022-12-18T15:36:00;27.83;;;9.33;;
21697;SDS011;11010;49.548;11.926;2022-12-18T15:38:28;25.53;;;9.77;;
21697;SDS011;11010;49.548;11.926;2022-12-18T15:40:56;45.07;;;15.57;;
21697;SDS011;11010;49.548;11.926;2022-12-18T15:43:24;43.17;;;13.17;;
21697;SDS011;11010;49.548;11.926;2022-12-18T15:48:29;29.00;;;11.13;;
21697;SDS011;11010;49.548;11.926;2022-12-18T15:50:57;29.20;;;10.80;;
21697;SDS011;11010;49.548;11.926;2022-12-18T15:53:27;27.53;;;10.70;;
21697;SDS011;11010;49.548;11.926;2022-12-18T15:55:56;25.07;;;9.83;;
21697;SDS011;11010;49.548;11.926;2022-12-18T15:58:43;23.40;;;9.87;;
21697;SDS011;11010;49.548;11.926;2022-12-18T16:01:10;22.37;;;9.47;;
21697;SDS011;11010;49.548;11.926;2022-12-18T16:03:38;27.37;;;9.80;;
21697;SDS011;11010;49.548;11.926;2022-12-18T16:06:08;23.27;;;9.63;;
21697;SDS011;11010;49.548;11.926;2022-12-18T16:08:36;28.20;;;9.87;;
21697;SDS011;11010;49.548;11.926;2022-12-18T16:11:04;24.57;;;10.47;;
21697;SDS011;11010;49.548;11.926;2022-12-18T16:13:32;25.57;;;9.93;;
21697;SDS011;11010;49.548;11.926;2022-12-18T16:16:00;25.77;;;9.60;;
21697;SDS011;11010;49.548;11.926;2022-12-18T16:18:27;23.17;;;8.87;;
21697;SDS011;11010;49.548;11.926;2022-12-18T16:20:55;23.00;;;8.90;;